sensor_id;sensor_type;location;lat;lon;timestamp;P1;durP1;ratioP1;P2;durP2;ratioP2
44987;SDS011;35735;52.226;21.254;2023-06-22T00:01:38;23.92;;;21.45;;
44987;SDS011;35735;52.226;21.254;2023-06-22T00:06:39;27.92;;;23.35;;
44987;SDS011;35735;52.226;21.254;2023-06-22T00:11:40;28.92;;;22.73;;
44987;SDS011;35735;52.226;21.254;2023-06-22T00:16:40;26.20;;;23.55;;
44987;SDS011;35735;52.226;21.254;2023-06-22T00:21:41;26.52;;;23.77;;
44987;SDS011;35735;52.226;21.254;2023-06-22T00:26:41;26.95;;;24.35;;
44987;SDS011;35735;52.226;21.254;2023-06-22T00:31:42;26.60;;;23.83;;
44987;SDS011;35735;52.226;21.254;2023-06-22T00:36:43;27.55;;;24.00;;
44987;SDS011;35735;52.226;21.254;2023-06-22T00:41:43;25.75;;;23.10;;
44987;SDS011;35735;52.226;21.254;2023-06-22T00:46:44;24.92;;;22.48;;
44987;SDS011;35735;52.226;21.254;2023-06-22T00:51:44;25.48;;;23.05;;
44987;SDS011;35735;52.226;21.254;2023-06-22T00:56:45;25.98;;;23.48;;
44987;SDS011;35735;52.226;21.254;2023-06-22T01:01:46;27.67;;;25.02;;
44987;SDS011;35735;52.226;21.254;2023-06-22T01:06:54;25.35;;;23.05;;
44987;SDS011;35735;52.226;21.254;2023-06-22T01:12:04;25.58;;;23.27;;
44987;SDS011;35735;52.226;21.254;2023-06-22T01:17:08;27.35;;;24.60;;
44987;SDS011;35735;52.226;21.254;2023-06-22T01:22:10;27.23;;;24.58;;
44987;SDS011;35735;52.226;21.254;2023-06-22T01:32:39;27.08;;;24.37;;
44987;SDS011;35735;52.226;21.254;2023-06-22T01:37:41;28.60;;;25.90;;
44987;SDS011;35735;52.226;21.254;2023-06-22T01:42:41;28.23;;;25.67;;
44987;SDS011;35735;52.226;21.254;2023-06-22T01:47:43;28.58;;;25.80;;
44987;SDS011;35735;52.226;21.254;2023-06-22T01:52:44;27.98;;;25.25;;
44987;SDS011;35735;52.226;21.254;2023-06-22T01:57:45;28.08;;;25.42;;
44987;SDS011;35735;52.226;21.254;2023-06-22T02:08:09;26.12;;;23.70;;
44987;SDS011;35735;52.226;21.254;2023-06-22T02:13:18;27.00;;;24.48;;
44987;SDS011;35735;52.226;21.254;2023-06-22T02:18:19;29.05;;;26.25;;
44987;SDS011;35735;52.226;21.254;2023-06-22T02:23:19;29.87;;;27.08;;
44987;SDS011;35735;52.226;21.254;2023-06-22T02:28:20;27.73;;;25.17;;
44987;SDS011;35735;52.226;21.254;2023-06-22T02:33:20;27.55;;;25.02;;
44987;SDS011;35735;52.226;21.254;2023-06-22T02:38:21;29.80;;;27.00;;
44987;SDS011;35735;52.226;21.254;2023-06-22T02:43:21;30.08;;;27.27;;
44987;SDS011;35735;52.226;21.254;2023-06-22T02:48:22;29.55;;;26.80;;
44987;SDS011;35735;52.226;21.254;2023-06-22T02:53:22;28.98;;;26.37;;
44987;SDS011;35735;52.226;21.254;2023-06-22T02:58:23;29.33;;;26.55;;
44987;SDS011;35735;52.226;21.254;2023-06-22T03:03:23;29.48;;;26.50;;
44987;SDS011;35735;52.226;21.254;2023-06-22T03:08:24;29.85;;;26.98;;
44987;SDS011;35735;52.226;21.254;2023-06-22T03:13:25;28.48;;;25.75;;
44987;SDS011;35735;52.226;21.254;2023-06-22T03:18:27;29.05;;;26.25;;
44987;SDS011;35735;52.226;21.254;2023-06-22T03:23:28;29.25;;;26.55;;
44987;SDS011;35735;52.226;21.254;2023-06-22T03:28:28;30.27;;;27.45;;
44987;SDS011;35735;52.226;21.254;2023-06-22T03:33:29;29.80;;;26.85;;
44987;SDS011;35735;52.226;21.254;2023-06-22T03:38:29;31.62;;;28.42;;
44987;SDS011;35735;52.226;21.254;2023-06-22T03:43:30;33.58;;;28.38;;
44987;SDS011;35735;52.226;21.254;2023-06-22T03:48:30;32.35;;;28.92;;
44987;SDS011;35735;52.226;21.254;2023-06-22T03:53:31;32.55;;;29.45;;
44987;SDS011;35735;52.226;21.254;2023-06-22T03:58:31;33.75;;;30.45;;
44987;SDS011;35735;52.226;21.254;2023-06-22T04:03:32;34.53;;;31.08;;
44987;SDS011;35735;52.226;21.254;2023-06-22T04:08:32;35.17;;;31.55;;
44987;SDS011;35735;52.226;21.254;2023-06-22T04:13:33;32.35;;;29.35;;
44987;SDS011;35735;52.226;21.254;2023-06-22T04:18:34;34.15;;;30.73;;
44987;SDS011;35735;52.226;21.254;2023-06-22T04:23:34;34.25;;;31.05;;
44987;SDS011;35735;52.226;21.254;2023-06-22T04:28:35;35.63;;;32.03;;
44987;SDS011;35735;52.226;21.254;2023-06-22T04:33:35;32.97;;;29.77;;
44987;SDS011;35735;52.226;21.254;2023-06-22T04:38:36;34.05;;;30.75;;
44987;SDS011;35735;52.226;21.254;2023-06-22T04:43:36;33.65;;;30.08;;
44987;SDS011;35735;52.226;21.254;2023-06-22T04:48:37;32.83;;;29.63;;
44987;SDS011;35735;52.226;21.254;2023-06-22T04:53:37;31.70;;;28.77;;
44987;SDS011;35735;52.226;21.254;2023-06-22T04:58:38;31.40;;;28.02;;
44987;SDS011;35735;52.226;21.254;2023-06-22T05:03:39;31.17;;;27.83;;
44987;SDS011;35735;52.226;21.254;2023-06-22T05:08:39;30.45;;;26.62;;
44987;SDS011;35735;52.226;21.254;2023-06-22T05:13:40;30.65;;;27.42;;
44987;SDS011;35735;52.226;21.254;2023-06-22T05:18:41;28.77;;;25.98;;
44987;SDS011;35735;52.226;21.254;2023-06-22T05:23:42;28.02;;;25.12;;
44987;SDS011;35735;52.226;21.254;2023-06-22T05:28:42;28.77;;;25.80;;
44987;SDS011;35735;52.226;21.254;2023-06-22T05:33:43;28.95;;;26.25;;
44987;SDS011;35735;52.226;21.254;2023-06-22T05:38:44;31.12;;;27.92;;
44987;SDS011;35735;52.226;21.254;2023-06-22T05:43:44;29.50;;;26.70;;
44987;SDS011;35735;52.226;21.254;2023-06-22T05:48:45;30.90;;;27.83;;
44987;SDS011;35735;52.226;21.254;2023-06-22T05:53:46;30.33;;;27.20;;
44987;SDS011;35735;52.226;21.254;2023-06-22T05:58:46;30.17;;;26.52;;
44987;SDS011;35735;52.226;21.254;2023-06-22T06:03:47;28.55;;;25.60;;
44987;SDS011;35735;52.226;21.254;2023-06-22T06:08:47;28.62;;;25.88;;
44987;SDS011;35735;52.226;21.254;2023-06-22T06:13:48;28.50;;;25.80;;
44987;SDS011;35735;52.226;21.254;2023-06-22T06:18:49;28.27;;;25.30;;
44987;SDS011;35735;52.226;21.254;2023-06-22T06:23:49;26.48;;;23.62;;
44987;SDS011;35735;52.226;21.254;2023-06-22T06:28:50;26.58;;;23.77;;
44987;SDS011;35735;52.226;21.254;2023-06-22T06:33:50;26.70;;;23.90;;
44987;SDS011;35735;52.226;21.254;2023-06-22T06:38:51;27.98;;;24.98;;
44987;SDS011;35735;52.226;21.254;2023-06-22T06:43:51;24.92;;;22.60;;
44987;SDS011;35735;52.226;21.254;2023-06-22T06:48:52;24.67;;;22.37;;
44987;SDS011;35735;52.226;21.254;2023-06-22T06:53:52;23.90;;;21.55;;
44987;SDS011;35735;52.226;21.254;2023-06-22T06:58:53;26.12;;;22.35;;
44987;SDS011;35735;52.226;21.254;2023-06-22T07:03:53;24.45;;;21.25;;
44987;SDS011;35735;52.226;21.254;2023-06-22T07:08:54;22.60;;;20.25;;
44987;SDS011;35735;52.226;21.254;2023-06-22T07:13:55;22.00;;;19.87;;
44987;SDS011;35735;52.226;21.254;2023-06-22T07:18:56;21.95;;;19.95;;
44987;SDS011;35735;52.226;21.254;2023-06-22T07:23:56;22.83;;;20.05;;
44987;SDS011;35735;52.226;21.254;2023-06-22T07:28:57;22.13;;;19.48;;
44987;SDS011;35735;52.226;21.254;2023-06-22T07:33:57;21.52;;;17.45;;
44987;SDS011;35735;52.226;21.254;2023-06-22T07:38:58;18.77;;;16.83;;
44987;SDS011;35735;52.226;21.254;2023-06-22T07:43:58;19.80;;;17.95;;
44987;SDS011;35735;52.226;21.254;2023-06-22T07:48:59;20.40;;;16.58;;
44987;SDS011;35735;52.226;21.254;2023-06-22T07:54:00;17.00;;;15.30;;
44987;SDS011;35735;52.226;21.254;2023-06-22T07:59:00;20.23;;;14.00;;
44987;SDS011;35735;52.226;21.254;2023-06-22T08:04:01;16.12;;;14.10;;
44987;SDS011;35735;52.226;21.254;2023-06-22T08:09:01;13.50;;;12.00;;
44987;SDS011;35735;52.226;21.254;2023-06-22T08:14:02;13.90;;;11.45;;
44987;SDS011;35735;52.226;21.254;2023-06-22T08:19:03;13.27;;;11.27;;
44987;SDS011;35735;52.226;21.254;2023-06-22T08:24:03;15.35;;;10.07;;
44987;SDS011;35735;52.226;21.254;2023-06-22T08:29:04;11.27;;;8.40;;
44987;SDS011;35735;52.226;21.254;2023-06-22T08:34:05;9.52;;;6.95;;
44987;SDS011;35735;52.226;21.254;2023-06-22T08:39:05;8.45;;;6.60;;
44987;SDS011;35735;52.226;21.254;2023-06-22T08:44:06;7.50;;;6.60;;
44987;SDS011;35735;52.226;21.254;2023-06-22T08:49:06;6.47;;;5.65;;
44987;SDS011;35735;52.226;21.254;2023-06-22T08:54:07;6.87;;;5.05;;
44987;SDS011;35735;52.226;21.254;2023-06-22T08:59:08;9.73;;;4.85;;
44987;SDS011;35735;52.226;21.254;2023-06-22T09:04:08;6.45;;;4.50;;
44987;SDS011;35735;52.226;21.254;2023-06-22T09:09:09;8.40;;;4.90;;
44987;SDS011;35735;52.226;21.254;2023-06-22T09:14:09;5.20;;;4.07;;
44987;SDS011;35735;52.226;21.254;2023-06-22T09:19:11;8.00;;;4.70;;
44987;SDS011;35735;52.226;21.254;2023-06-22T09:24:11;8.25;;;5.03;;
44987;SDS011;35735;52.226;21.254;2023-06-22T09:29:12;5.43;;;4.03;;
44987;SDS011;35735;52.226;21.254;2023-06-22T09:34:13;6.87;;;4.20;;
44987;SDS011;35735;52.226;21.254;2023-06-22T09:39:13;8.80;;;3.87;;
44987;SDS011;35735;52.226;21.254;2023-06-22T09:44:14;6.18;;;3.40;;
44987;SDS011;35735;52.226;21.254;2023-06-22T09:49:14;3.50;;;3.20;;
44987;SDS011;35735;52.226;21.254;2023-06-22T09:54:15;8.10;;;3.47;;
44987;SDS011;35735;52.226;21.254;2023-06-22T09:59:15;16.85;;;3.70;;
44987;SDS011;35735;52.226;21.254;2023-06-22T10:04:16;3.60;;;2.70;;
44987;SDS011;35735;52.226;21.254;2023-06-22T10:09:16;7.78;;;2.55;;
44987;SDS011;35735;52.226;21.254;2023-06-22T10:14:17;2.60;;;2.40;;
44987;SDS011;35735;52.226;21.254;2023-06-22T10:19:18;4.55;;;2.70;;
44987;SDS011;35735;52.226;21.254;2023-06-22T10:24:18;4.93;;;3.37;;
44987;SDS011;35735;52.226;21.254;2023-06-22T10:29:19;5.60;;;3.00;;
44987;SDS011;35735;52.226;21.254;2023-06-22T10:34:20;5.85;;;3.25;;
44987;SDS011;35735;52.226;21.254;2023-06-22T10:39:21;6.12;;;3.12;;
44987;SDS011;35735;52.226;21.254;2023-06-22T10:44:21;5.18;;;3.50;;
44987;SDS011;35735;52.226;21.254;2023-06-22T10:49:22;13.77;;;3.55;;
44987;SDS011;35735;52.226;21.254;2023-06-22T10:54:22;6.12;;;3.62;;
44987;SDS011;35735;52.226;21.254;2023-06-22T10:59:23;8.30;;;4.43;;
44987;SDS011;35735;52.226;21.254;2023-06-22T11:04:23;6.05;;;3.37;;
44987;SDS011;35735;52.226;21.254;2023-06-22T11:09:24;4.18;;;3.70;;
44987;SDS011;35735;52.226;21.254;2023-06-22T11:14:25;5.25;;;3.87;;
44987;SDS011;35735;52.226;21.254;2023-06-22T11:19:25;19.95;;;4.43;;
44987;SDS011;35735;52.226;21.254;2023-06-22T11:24:26;7.55;;;4.18;;
44987;SDS011;35735;52.226;21.254;2023-06-22T11:29:26;7.20;;;4.30;;
44987;SDS011;35735;52.226;21.254;2023-06-22T11:34:27;5.57;;;4.10;;
44987;SDS011;35735;52.226;21.254;2023-06-22T11:39:28;7.62;;;4.37;;
44987;SDS011;35735;52.226;21.254;2023-06-22T11:44:28;8.07;;;4.30;;
44987;SDS011;35735;52.226;21.254;2023-06-22T11:49:29;9.70;;;4.47;;
44987;SDS011;35735;52.226;21.254;2023-06-22T11:54:31;7.30;;;4.30;;
44987;SDS011;35735;52.226;21.254;2023-06-22T11:59:31;6.78;;;4.30;;
44987;SDS011;35735;52.226;21.254;2023-06-22T12:04:32;5.25;;;3.83;;
44987;SDS011;35735;52.226;21.254;2023-06-22T12:09:32;6.47;;;4.18;;
44987;SDS011;35735;52.226;21.254;2023-06-22T12:14:33;6.57;;;4.55;;
44987;SDS011;35735;52.226;21.254;2023-06-22T12:19:33;10.60;;;4.65;;
44987;SDS011;35735;52.226;21.254;2023-06-22T12:24:34;5.43;;;4.37;;
44987;SDS011;35735;52.226;21.254;2023-06-22T12:29:34;9.05;;;4.45;;
44987;SDS011;35735;52.226;21.254;2023-06-22T12:34:35;6.95;;;4.10;;
44987;SDS011;35735;52.226;21.254;2023-06-22T12:39:36;13.07;;;4.30;;
44987;SDS011;35735;52.226;21.254;2023-06-22T12:44:37;9.15;;;4.20;;
44987;SDS011;35735;52.226;21.254;2023-06-22T12:49:38;13.00;;;4.05;;
44987;SDS011;35735;52.226;21.254;2023-06-22T12:54:39;5.37;;;4.18;;
44987;SDS011;35735;52.226;21.254;2023-06-22T12:59:40;6.25;;;4.43;;
44987;SDS011;35735;52.226;21.254;2023-06-22T13:04:40;6.55;;;4.37;;
44987;SDS011;35735;52.226;21.254;2023-06-22T13:09:41;6.37;;;4.35;;
44987;SDS011;35735;52.226;21.254;2023-06-22T13:14:41;14.90;;;4.65;;
44987;SDS011;35735;52.226;21.254;2023-06-22T13:19:42;5.03;;;4.30;;
44987;SDS011;35735;52.226;21.254;2023-06-22T13:24:43;6.35;;;4.70;;
44987;SDS011;35735;52.226;21.254;2023-06-22T13:29:43;8.05;;;4.45;;
44987;SDS011;35735;52.226;21.254;2023-06-22T13:34:44;17.08;;;5.05;;
44987;SDS011;35735;52.226;21.254;2023-06-22T13:39:44;7.28;;;4.47;;
44987;SDS011;35735;52.226;21.254;2023-06-22T13:44:45;41.25;;;6.30;;
44987;SDS011;35735;52.226;21.254;2023-06-22T13:49:45;9.98;;;5.03;;
44987;SDS011;35735;52.226;21.254;2023-06-22T13:54:46;7.47;;;5.30;;
44987;SDS011;35735;52.226;21.254;2023-06-22T13:59:46;8.05;;;5.25;;
44987;SDS011;35735;52.226;21.254;2023-06-22T14:04:47;10.15;;;6.00;;
44987;SDS011;35735;52.226;21.254;2023-06-22T14:09:47;9.02;;;5.20;;
44987;SDS011;35735;52.226;21.254;2023-06-22T14:14:48;5.68;;;5.18;;
44987;SDS011;35735;52.226;21.254;2023-06-22T14:19:49;14.63;;;5.78;;
44987;SDS011;35735;52.226;21.254;2023-06-22T14:24:50;21.12;;;5.80;;
44987;SDS011;35735;52.226;21.254;2023-06-22T14:29:50;6.62;;;5.47;;
44987;SDS011;35735;52.226;21.254;2023-06-22T14:34:51;10.55;;;5.80;;
44987;SDS011;35735;52.226;21.254;2023-06-22T14:39:51;15.52;;;5.75;;
44987;SDS011;35735;52.226;21.254;2023-06-22T14:44:52;11.68;;;5.30;;
44987;SDS011;35735;52.226;21.254;2023-06-22T14:49:52;7.75;;;5.15;;
44987;SDS011;35735;52.226;21.254;2023-06-22T14:54:55;7.65;;;5.30;;
44987;SDS011;35735;52.226;21.254;2023-06-22T14:59:55;9.38;;;4.82;;
44987;SDS011;35735;52.226;21.254;2023-06-22T15:04:56;11.60;;;5.30;;
44987;SDS011;35735;52.226;21.254;2023-06-22T15:09:56;6.32;;;4.85;;
44987;SDS011;35735;52.226;21.254;2023-06-22T15:14:57;5.50;;;4.87;;
44987;SDS011;35735;52.226;21.254;2023-06-22T15:19:58;9.52;;;4.55;;
44987;SDS011;35735;52.226;21.254;2023-06-22T15:24:58;7.80;;;5.05;;
44987;SDS011;35735;52.226;21.254;2023-06-22T15:29:59;5.25;;;4.62;;
44987;SDS011;35735;52.226;21.254;2023-06-22T15:34:59;17.98;;;5.30;;
44987;SDS011;35735;52.226;21.254;2023-06-22T15:40:00;8.85;;;5.47;;
44987;SDS011;35735;52.226;21.254;2023-06-22T15:45:00;6.78;;;5.07;;
44987;SDS011;35735;52.226;21.254;2023-06-22T15:50:01;7.57;;;5.07;;
44987;SDS011;35735;52.226;21.254;2023-06-22T15:55:01;5.40;;;4.90;;
44987;SDS011;35735;52.226;21.254;2023-06-22T16:00:02;10.15;;;5.47;;
44987;SDS011;35735;52.226;21.254;2023-06-22T16:05:04;8.98;;;5.10;;
44987;SDS011;35735;52.226;21.254;2023-06-22T16:10:05;10.77;;;5.30;;
44987;SDS011;35735;52.226;21.254;2023-06-22T16:15:07;16.50;;;5.40;;
44987;SDS011;35735;52.226;21.254;2023-06-22T16:20:08;16.73;;;5.62;;
44987;SDS011;35735;52.226;21.254;2023-06-22T16:25:09;15.73;;;5.65;;
44987;SDS011;35735;52.226;21.254;2023-06-22T16:30:10;18.58;;;6.12;;
44987;SDS011;35735;52.226;21.254;2023-06-22T16:35:10;6.15;;;5.10;;
44987;SDS011;35735;52.226;21.254;2023-06-22T16:40:11;11.23;;;5.78;;
44987;SDS011;35735;52.226;21.254;2023-06-22T16:45:15;11.05;;;5.57;;
44987;SDS011;35735;52.226;21.254;2023-06-22T16:50:17;6.45;;;4.80;;
44987;SDS011;35735;52.226;21.254;2023-06-22T16:55:18;6.40;;;5.03;;
44987;SDS011;35735;52.226;21.254;2023-06-22T17:00:21;6.50;;;5.60;;
44987;SDS011;35735;52.226;21.254;2023-06-22T17:05:22;5.40;;;4.65;;
44987;SDS011;35735;52.226;21.254;2023-06-22T17:10:22;13.23;;;4.65;;
44987;SDS011;35735;52.226;21.254;2023-06-22T17:15:23;5.80;;;4.70;;
44987;SDS011;35735;52.226;21.254;2023-06-22T17:20:24;10.30;;;4.70;;
44987;SDS011;35735;52.226;21.254;2023-06-22T17:25:29;12.52;;;4.93;;
44987;SDS011;35735;52.226;21.254;2023-06-22T17:30:33;9.63;;;5.28;;
44987;SDS011;35735;52.226;21.254;2023-06-22T17:35:34;15.52;;;4.95;;
44987;SDS011;35735;52.226;21.254;2023-06-22T17:40:46;6.10;;;5.03;;
44987;SDS011;35735;52.226;21.254;2023-06-22T17:45:46;6.07;;;4.70;;
44987;SDS011;35735;52.226;21.254;2023-06-22T17:50:47;6.95;;;4.90;;
44987;SDS011;35735;52.226;21.254;2023-06-22T17:55:49;5.95;;;5.15;;
44987;SDS011;35735;52.226;21.254;2023-06-22T18:00:52;5.70;;;4.95;;
44987;SDS011;35735;52.226;21.254;2023-06-22T18:05:53;11.52;;;5.15;;
44987;SDS011;35735;52.226;21.254;2023-06-22T18:10:56;9.98;;;5.70;;
44987;SDS011;35735;52.226;21.254;2023-06-22T18:15:57;16.27;;;5.40;;
44987;SDS011;35735;52.226;21.254;2023-06-22T18:20:59;11.32;;;5.50;;
44987;SDS011;35735;52.226;21.254;2023-06-22T18:26:03;9.98;;;5.57;;
44987;SDS011;35735;52.226;21.254;2023-06-22T18:31:04;29.17;;;7.37;;
44987;SDS011;35735;52.226;21.254;2023-06-22T18:36:06;34.05;;;7.35;;
44987;SDS011;35735;52.226;21.254;2023-06-22T18:41:19;40.42;;;7.95;;
44987;SDS011;35735;52.226;21.254;2023-06-22T18:57:24;46.35;;;8.68;;
44987;SDS011;35735;52.226;21.254;2023-06-22T19:07:55;26.53;;;8.00;;
44987;SDS011;35735;52.226;21.254;2023-06-22T19:12:56;25.15;;;7.65;;
44987;SDS011;35735;52.226;21.254;2023-06-22T19:23:22;22.27;;;7.62;;
44987;SDS011;35735;52.226;21.254;2023-06-22T19:28:31;21.60;;;8.30;;
44987;SDS011;35735;52.226;21.254;2023-06-22T19:33:32;21.40;;;8.52;;
44987;SDS011;35735;52.226;21.254;2023-06-22T19:38:33;14.35;;;8.05;;
44987;SDS011;35735;52.226;21.254;2023-06-22T19:43:33;19.95;;;8.93;;
44987;SDS011;35735;52.226;21.254;2023-06-22T19:48:34;19.67;;;8.38;;
44987;SDS011;35735;52.226;21.254;2023-06-22T19:53:39;16.87;;;7.90;;
44987;SDS011;35735;52.226;21.254;2023-06-22T19:58:40;19.08;;;8.05;;
44987;SDS011;35735;52.226;21.254;2023-06-22T20:03:41;10.02;;;8.27;;
44987;SDS011;35735;52.226;21.254;2023-06-22T20:08:42;11.27;;;8.95;;
44987;SDS011;35735;52.226;21.254;2023-06-22T20:13:48;18.87;;;8.88;;
44987;SDS011;35735;52.226;21.254;2023-06-22T20:19:06;21.67;;;9.00;;
44987;SDS011;35735;52.226;21.254;2023-06-22T20:24:11;19.23;;;9.15;;
44987;SDS011;35735;52.226;21.254;2023-06-22T20:29:25;15.40;;;9.00;;
44987;SDS011;35735;52.226;21.254;2023-06-22T20:34:32;20.65;;;9.40;;
44987;SDS011;35735;52.226;21.254;2023-06-22T20:39:37;13.20;;;8.55;;
44987;SDS011;35735;52.226;21.254;2023-06-22T20:44:38;29.85;;;9.77;;
44987;SDS011;35735;52.226;21.254;2023-06-22T20:49:38;16.75;;;9.40;;
44987;SDS011;35735;52.226;21.254;2023-06-22T20:54:39;20.35;;;8.93;;
44987;SDS011;35735;52.226;21.254;2023-06-22T20:59:39;16.48;;;9.85;;
44987;SDS011;35735;52.226;21.254;2023-06-22T21:04:40;18.87;;;9.35;;
44987;SDS011;35735;52.226;21.254;2023-06-22T21:09:40;17.58;;;9.35;;
44987;SDS011;35735;52.226;21.254;2023-06-22T21:14:41;20.92;;;10.05;;
44987;SDS011;35735;52.226;21.254;2023-06-22T21:19:42;37.78;;;18.35;;
44987;SDS011;35735;52.226;21.254;2023-06-22T21:24:42;57.70;;;30.92;;
44987;SDS011;35735;52.226;21.254;2023-06-22T21:29:44;48.25;;;26.90;;
44987;SDS011;35735;52.226;21.254;2023-06-22T21:34:44;36.45;;;21.70;;
44987;SDS011;35735;52.226;21.254;2023-06-22T21:39:45;24.83;;;16.35;;
44987;SDS011;35735;52.226;21.254;2023-06-22T21:44:45;20.90;;;13.43;;
44987;SDS011;35735;52.226;21.254;2023-06-22T21:49:46;14.32;;;11.77;;
44987;SDS011;35735;52.226;21.254;2023-06-22T21:54:47;13.82;;;10.07;;
44987;SDS011;35735;52.226;21.254;2023-06-22T21:59:47;11.30;;;9.38;;
44987;SDS011;35735;52.226;21.254;2023-06-22T22:04:48;11.55;;;9.00;;
44987;SDS011;35735;52.226;21.254;2023-06-22T22:09:49;12.45;;;9.48;;
44987;SDS011;35735;52.226;21.254;2023-06-22T22:14:49;11.95;;;8.38;;
44987;SDS011;35735;52.226;21.254;2023-06-22T22:19:50;11.70;;;9.80;;
44987;SDS011;35735;52.226;21.254;2023-06-22T22:24:51;12.30;;;8.70;;
44987;SDS011;35735;52.226;21.254;2023-06-22T22:29:51;17.12;;;9.63;;
44987;SDS011;35735;52.226;21.254;2023-06-22T22:34:52;18.23;;;10.13;;
44987;SDS011;35735;52.226;21.254;2023-06-22T22:39:52;14.07;;;9.98;;
44987;SDS011;35735;52.226;21.254;2023-06-22T22:44:53;12.27;;;9.77;;
44987;SDS011;35735;52.226;21.254;2023-06-22T22:49:53;14.93;;;9.93;;
44987;SDS011;35735;52.226;21.254;2023-06-22T22:54:54;14.77;;;8.95;;
44987;SDS011;35735;52.226;21.254;2023-06-22T22:59:55;13.48;;;10.00;;
44987;SDS011;35735;52.226;21.254;2023-06-22T23:04:56;22.40;;;9.68;;
44987;SDS011;35735;52.226;21.254;2023-06-22T23:09:58;22.65;;;10.25;;
44987;SDS011;35735;52.226;21.254;2023-06-22T23:14:58;15.10;;;9.93;;
44987;SDS011;35735;52.226;21.254;2023-06-22T23:19:59;17.95;;;10.20;;
44987;SDS011;35735;52.226;21.254;2023-06-22T23:25:00;29.37;;;10.73;;
44987;SDS011;35735;52.226;21.254;2023-06-22T23:30:00;27.58;;;11.82;;
44987;SDS011;35735;52.226;21.254;2023-06-22T23:35:01;56.50;;;13.38;;
44987;SDS011;35735;52.226;21.254;2023-06-22T23:40:05;49.47;;;12.60;;
44987;SDS011;35735;52.226;21.254;2023-06-22T23:45:07;31.45;;;10.98;;
44987;SDS011;35735;52.226;21.254;2023-06-22T23:50:08;34.38;;;11.73;;
44987;SDS011;35735;52.226;21.254;2023-06-22T23:55:10;23.05;;;11.68;;
